sensor_id;sensor_type;location;lat;lon;timestamp;temperature;humidity
11666;DHT22;5889;51.350;6.708;2022-08-21T00:01:21;20.00;99.40
11666;DHT22;5889;51.350;6.708;2022-08-21T00:03:50;20.00;99.40
11666;DHT22;5889;51.350;6.708;2022-08-21T00:06:17;20.00;99.40
11666;DHT22;5889;51.350;6.708;2022-08-21T00:08:44;20.00;99.50
11666;DHT22;5889;51.350;6.708;2022-08-21T00:11:11;19.90;99.50
11666;DHT22;5889;51.350;6.708;2022-08-21T00:13:37;19.90;99.60
11666;DHT22;5889;51.350;6.708;2022-08-21T00:16:05;19.90;99.60
11666;DHT22;5889;51.350;6.708;2022-08-21T00:18:32;19.90;99.70
11666;DHT22;5889;51.350;6.708;2022-08-21T00:21:00;19.80;99.70
11666;DHT22;5889;51.350;6.708;2022-08-21T00:23:27;19.80;99.80
11666;DHT22;5889;51.350;6.708;2022-08-21T00:25:54;19.80;99.80
11666;DHT22;5889;51.350;6.708;2022-08-21T00:28:21;19.80;99.80
11666;DHT22;5889;51.350;6.708;2022-08-21T00:30:48;19.80;99.90
11666;DHT22;5889;51.350;6.708;2022-08-21T00:33:15;19.70;99.90
11666;DHT22;5889;51.350;6.708;2022-08-21T00:35:42;19.70;99.90
11666;DHT22;5889;51.350;6.708;2022-08-21T00:38:11;19.60;99.90
11666;DHT22;5889;51.350;6.708;2022-08-21T00:40:41;19.60;99.90
11666;DHT22;5889;51.350;6.708;2022-08-21T00:43:10;19.60;99.90
11666;DHT22;5889;51.350;6.708;2022-08-21T00:45:38;19.50;99.90
11666;DHT22;5889;51.350;6.708;2022-08-21T00:48:06;19.50;99.90
11666;DHT22;5889;51.350;6.708;2022-08-21T00:50:43;19.40;99.90
11666;DHT22;5889;51.350;6.708;2022-08-21T00:53:12;19.40;99.90
11666;DHT22;5889;51.350;6.708;2022-08-21T00:55:40;19.30;99.90
11666;DHT22;5889;51.350;6.708;2022-08-21T00:58:09;19.30;99.90
11666;DHT22;5889;51.350;6.708;2022-08-21T01:00:39;19.30;99.90
11666;DHT22;5889;51.350;6.708;2022-08-21T01:03:11;19.20;99.90
11666;DHT22;5889;51.350;6.708;2022-08-21T01:05:39;19.10;99.90
11666;DHT22;5889;51.350;6.708;2022-08-21T01:08:07;19.10;99.90
11666;DHT22;5889;51.350;6.708;2022-08-21T01:10:37;19.00;99.90
11666;DHT22;5889;51.350;6.708;2022-08-21T01:13:05;19.00;99.90
11666;DHT22;5889;51.350;6.708;2022-08-21T01:15:35;18.90;99.90
11666;DHT22;5889;51.350;6.708;2022-08-21T01:18:02;18.90;99.90
11666;DHT22;5889;51.350;6.708;2022-08-21T01:20:30;18.90;99.90
11666;DHT22;5889;51.350;6.708;2022-08-21T01:22:58;18.80;99.90
11666;DHT22;5889;51.350;6.708;2022-08-21T01:25:25;18.90;99.90
11666;DHT22;5889;51.350;6.708;2022-08-21T01:27:52;18.80;99.90
11666;DHT22;5889;51.350;6.708;2022-08-21T01:30:24;18.80;99.90
11666;DHT22;5889;51.350;6.708;2022-08-21T01:32:53;18.70;99.90
11666;DHT22;5889;51.350;6.708;2022-08-21T01:35:20;18.60;99.90
11666;DHT22;5889;51.350;6.708;2022-08-21T01:37:48;18.40;99.90
11666;DHT22;5889;51.350;6.708;2022-08-21T01:40:17;18.40;99.90
11666;DHT22;5889;51.350;6.708;2022-08-21T01:42:44;18.40;99.90
11666;DHT22;5889;51.350;6.708;2022-08-21T01:45:13;18.40;99.90
11666;DHT22;5889;51.350;6.708;2022-08-21T01:47:40;18.40;99.90
11666;DHT22;5889;51.350;6.708;2022-08-21T01:50:11;18.40;99.90
11666;DHT22;5889;51.350;6.708;2022-08-21T01:52:38;18.40;99.90
11666;DHT22;5889;51.350;6.708;2022-08-21T01:55:08;18.40;99.90
11666;DHT22;5889;51.350;6.708;2022-08-21T01:57:36;18.40;99.90
11666;DHT22;5889;51.350;6.708;2022-08-21T02:00:05;18.30;99.90
11666;DHT22;5889;51.350;6.708;2022-08-21T02:02:32;18.30;99.90
11666;DHT22;5889;51.350;6.708;2022-08-21T02:04:59;18.30;99.90
11666;DHT22;5889;51.350;6.708;2022-08-21T02:07:26;18.20;99.90
11666;DHT22;5889;51.350;6.708;2022-08-21T02:09:53;18.20;99.90
11666;DHT22;5889;51.350;6.708;2022-08-21T02:12:19;18.20;99.90
11666;DHT22;5889;51.350;6.708;2022-08-21T02:14:48;18.10;99.90
11666;DHT22;5889;51.350;6.708;2022-08-21T02:17:15;18.10;99.90
11666;DHT22;5889;51.350;6.708;2022-08-21T02:19:41;18.20;99.90
11666;DHT22;5889;51.350;6.708;2022-08-21T02:22:09;18.10;99.90
11666;DHT22;5889;51.350;6.708;2022-08-21T02:24:36;18.20;99.90
11666;DHT22;5889;51.350;6.708;2022-08-21T02:27:03;18.20;99.90
11666;DHT22;5889;51.350;6.708;2022-08-21T02:29:30;18.20;99.90
11666;DHT22;5889;51.350;6.708;2022-08-21T02:31:59;18.20;99.90
11666;DHT22;5889;51.350;6.708;2022-08-21T02:34:25;18.20;99.90
11666;DHT22;5889;51.350;6.708;2022-08-21T02:36:52;18.20;99.90
11666;DHT22;5889;51.350;6.708;2022-08-21T02:39:19;18.20;99.90
11666;DHT22;5889;51.350;6.708;2022-08-21T02:41:46;18.20;99.90
11666;DHT22;5889;51.350;6.708;2022-08-21T02:44:13;18.10;99.90
11666;DHT22;5889;51.350;6.708;2022-08-21T02:46:40;18.10;99.90
11666;DHT22;5889;51.350;6.708;2022-08-21T02:49:08;18.00;99.90
11666;DHT22;5889;51.350;6.708;2022-08-21T02:51:35;17.90;99.90
11666;DHT22;5889;51.350;6.708;2022-08-21T02:54:02;17.80;99.90
11666;DHT22;5889;51.350;6.708;2022-08-21T02:56:29;17.70;99.90
11666;DHT22;5889;51.350;6.708;2022-08-21T02:58:56;17.70;99.90
11666;DHT22;5889;51.350;6.708;2022-08-21T03:01:22;17.60;99.90
11666;DHT22;5889;51.350;6.708;2022-08-21T03:03:50;17.50;99.90
11666;DHT22;5889;51.350;6.708;2022-08-21T03:06:20;17.50;99.90
11666;DHT22;5889;51.350;6.708;2022-08-21T03:08:47;17.50;99.90
11666;DHT22;5889;51.350;6.708;2022-08-21T03:11:15;17.50;99.90
11666;DHT22;5889;51.350;6.708;2022-08-21T03:13:42;17.50;99.90
11666;DHT22;5889;51.350;6.708;2022-08-21T03:16:09;17.50;99.90
11666;DHT22;5889;51.350;6.708;2022-08-21T03:18:36;17.50;99.90
11666;DHT22;5889;51.350;6.708;2022-08-21T03:21:03;17.50;99.90
11666;DHT22;5889;51.350;6.708;2022-08-21T03:23:32;17.50;99.90
11666;DHT22;5889;51.350;6.708;2022-08-21T03:25:59;17.50;99.90
11666;DHT22;5889;51.350;6.708;2022-08-21T03:28:26;17.50;99.90
11666;DHT22;5889;51.350;6.708;2022-08-21T03:30:53;17.50;99.90
11666;DHT22;5889;51.350;6.708;2022-08-21T03:33:21;17.50;99.90
11666;DHT22;5889;51.350;6.708;2022-08-21T03:35:58;17.50;99.90
11666;DHT22;5889;51.350;6.708;2022-08-21T03:38:27;17.50;99.90
11666;DHT22;5889;51.350;6.708;2022-08-21T03:40:55;17.40;99.90
11666;DHT22;5889;51.350;6.708;2022-08-21T03:43:22;17.40;99.90
11666;DHT22;5889;51.350;6.708;2022-08-21T03:45:49;17.30;99.90
11666;DHT22;5889;51.350;6.708;2022-08-21T03:48:16;17.30;99.90
11666;DHT22;5889;51.350;6.708;2022-08-21T03:50:44;17.30;99.90
11666;DHT22;5889;51.350;6.708;2022-08-21T03:53:13;17.30;99.90
11666;DHT22;5889;51.350;6.708;2022-08-21T03:55:41;17.30;99.90
11666;DHT22;5889;51.350;6.708;2022-08-21T03:58:09;17.20;99.90
11666;DHT22;5889;51.350;6.708;2022-08-21T04:00:36;17.20;99.90
11666;DHT22;5889;51.350;6.708;2022-08-21T04:03:04;17.20;99.90
11666;DHT22;5889;51.350;6.708;2022-08-21T04:05:32;17.10;99.90
11666;DHT22;5889;51.350;6.708;2022-08-21T04:08:02;17.10;99.90
11666;DHT22;5889;51.350;6.708;2022-08-21T04:10:31;17.00;99.90
11666;DHT22;5889;51.350;6.708;2022-08-21T04:12:58;17.00;99.90
11666;DHT22;5889;51.350;6.708;2022-08-21T04:15:27;17.00;99.90
11666;DHT22;5889;51.350;6.708;2022-08-21T04:17:54;17.00;99.90
11666;DHT22;5889;51.350;6.708;2022-08-21T04:20:22;17.00;99.90
11666;DHT22;5889;51.350;6.708;2022-08-21T04:22:49;17.00;99.90
11666;DHT22;5889;51.350;6.708;2022-08-21T04:25:20;17.00;99.90
11666;DHT22;5889;51.350;6.708;2022-08-21T04:27:47;17.00;99.90
11666;DHT22;5889;51.350;6.708;2022-08-21T04:30:15;17.00;99.90
11666;DHT22;5889;51.350;6.708;2022-08-21T04:32:43;17.00;99.90
11666;DHT22;5889;51.350;6.708;2022-08-21T04:35:12;17.00;99.90
11666;DHT22;5889;51.350;6.708;2022-08-21T04:37:39;17.00;99.90
11666;DHT22;5889;51.350;6.708;2022-08-21T04:40:08;17.00;99.90
11666;DHT22;5889;51.350;6.708;2022-08-21T04:42:42;17.00;99.90
11666;DHT22;5889;51.350;6.708;2022-08-21T04:45:13;17.00;99.90
11666;DHT22;5889;51.350;6.708;2022-08-21T04:47:40;17.00;99.90
11666;DHT22;5889;51.350;6.708;2022-08-21T04:50:09;17.00;99.90
11666;DHT22;5889;51.350;6.708;2022-08-21T04:52:36;17.00;99.90
11666;DHT22;5889;51.350;6.708;2022-08-21T04:55:04;17.00;99.90
11666;DHT22;5889;51.350;6.708;2022-08-21T04:57:31;17.00;99.90
11666;DHT22;5889;51.350;6.708;2022-08-21T04:59:58;17.00;99.90
11666;DHT22;5889;51.350;6.708;2022-08-21T05:02:25;17.00;99.90
11666;DHT22;5889;51.350;6.708;2022-08-21T05:04:54;17.00;99.90
11666;DHT22;5889;51.350;6.708;2022-08-21T05:07:25;17.00;99.90
11666;DHT22;5889;51.350;6.708;2022-08-21T05:09:54;17.00;99.90
11666;DHT22;5889;51.350;6.708;2022-08-21T05:12:21;17.10;99.90
11666;DHT22;5889;51.350;6.708;2022-08-21T05:14:48;17.10;99.90
11666;DHT22;5889;51.350;6.708;2022-08-21T05:17:15;17.10;99.90
11666;DHT22;5889;51.350;6.708;2022-08-21T05:19:42;17.20;99.90
11666;DHT22;5889;51.350;6.708;2022-08-21T05:22:09;17.20;99.90
11666;DHT22;5889;51.350;6.708;2022-08-21T05:24:37;17.20;99.90
11666;DHT22;5889;51.350;6.708;2022-08-21T05:27:04;17.30;99.90
11666;DHT22;5889;51.350;6.708;2022-08-21T05:29:32;17.30;99.90
11666;DHT22;5889;51.350;6.708;2022-08-21T05:32:00;17.30;99.90
11666;DHT22;5889;51.350;6.708;2022-08-21T05:34:27;17.30;99.90
11666;DHT22;5889;51.350;6.708;2022-08-21T05:36:54;17.40;99.90
11666;DHT22;5889;51.350;6.708;2022-08-21T05:39:20;17.40;99.90
11666;DHT22;5889;51.350;6.708;2022-08-21T05:41:49;17.40;99.90
11666;DHT22;5889;51.350;6.708;2022-08-21T05:44:16;17.40;99.90
11666;DHT22;5889;51.350;6.708;2022-08-21T05:46:42;17.40;99.90
11666;DHT22;5889;51.350;6.708;2022-08-21T05:49:10;17.50;99.90
11666;DHT22;5889;51.350;6.708;2022-08-21T05:51:39;17.50;99.90
11666;DHT22;5889;51.350;6.708;2022-08-21T05:54:06;17.50;99.90
11666;DHT22;5889;51.350;6.708;2022-08-21T05:56:33;17.50;99.90
11666;DHT22;5889;51.350;6.708;2022-08-21T05:59:02;17.60;99.90
11666;DHT22;5889;51.350;6.708;2022-08-21T06:01:29;17.60;99.90
11666;DHT22;5889;51.350;6.708;2022-08-21T06:03:56;17.60;99.90
11666;DHT22;5889;51.350;6.708;2022-08-21T06:06:22;17.70;99.90
11666;DHT22;5889;51.350;6.708;2022-08-21T06:08:49;17.70;99.90
11666;DHT22;5889;51.350;6.708;2022-08-21T06:11:18;17.70;99.90
11666;DHT22;5889;51.350;6.708;2022-08-21T06:13:44;17.80;99.90
11666;DHT22;5889;51.350;6.708;2022-08-21T06:16:15;17.90;99.90
11666;DHT22;5889;51.350;6.708;2022-08-21T06:18:43;17.90;99.90
11666;DHT22;5889;51.350;6.708;2022-08-21T06:21:11;17.90;99.90
11666;DHT22;5889;51.350;6.708;2022-08-21T06:23:38;17.90;99.90
11666;DHT22;5889;51.350;6.708;2022-08-21T06:26:07;17.90;99.90
11666;DHT22;5889;51.350;6.708;2022-08-21T06:28:35;18.00;99.90
11666;DHT22;5889;51.350;6.708;2022-08-21T06:31:10;18.00;99.90
11666;DHT22;5889;51.350;6.708;2022-08-21T06:33:38;18.20;99.90
11666;DHT22;5889;51.350;6.708;2022-08-21T06:36:06;18.20;99.90
11666;DHT22;5889;51.350;6.708;2022-08-21T06:38:39;18.30;99.90
11666;DHT22;5889;51.350;6.708;2022-08-21T06:41:07;18.40;99.90
11666;DHT22;5889;51.350;6.708;2022-08-21T06:43:33;18.40;99.90
11666;DHT22;5889;51.350;6.708;2022-08-21T06:46:00;18.50;99.90
11666;DHT22;5889;51.350;6.708;2022-08-21T06:48:27;18.50;99.90
11666;DHT22;5889;51.350;6.708;2022-08-21T06:50:56;18.60;99.90
11666;DHT22;5889;51.350;6.708;2022-08-21T06:53:23;18.60;99.90
11666;DHT22;5889;51.350;6.708;2022-08-21T06:55:50;18.70;99.90
11666;DHT22;5889;51.350;6.708;2022-08-21T06:58:17;18.70;99.90
11666;DHT22;5889;51.350;6.708;2022-08-21T07:00:47;18.80;99.90
11666;DHT22;5889;51.350;6.708;2022-08-21T07:03:22;18.90;99.90
11666;DHT22;5889;51.350;6.708;2022-08-21T07:05:49;19.00;99.90
11666;DHT22;5889;51.350;6.708;2022-08-21T07:08:18;19.10;99.90
11666;DHT22;5889;51.350;6.708;2022-08-21T07:10:46;19.30;99.90
11666;DHT22;5889;51.350;6.708;2022-08-21T07:13:13;19.30;99.90
11666;DHT22;5889;51.350;6.708;2022-08-21T07:15:40;19.40;99.90
11666;DHT22;5889;51.350;6.708;2022-08-21T07:18:07;19.50;99.90
11666;DHT22;5889;51.350;6.708;2022-08-21T07:20:34;19.60;99.90
11666;DHT22;5889;51.350;6.708;2022-08-21T07:23:04;19.70;99.90
11666;DHT22;5889;51.350;6.708;2022-08-21T07:25:33;19.70;99.90
11666;DHT22;5889;51.350;6.708;2022-08-21T07:28:00;19.80;99.90
11666;DHT22;5889;51.350;6.708;2022-08-21T07:30:27;19.80;99.90
11666;DHT22;5889;51.350;6.708;2022-08-21T07:32:55;19.90;99.90
11666;DHT22;5889;51.350;6.708;2022-08-21T07:35:22;20.00;99.90
11666;DHT22;5889;51.350;6.708;2022-08-21T07:37:49;20.00;99.80
11666;DHT22;5889;51.350;6.708;2022-08-21T07:40:17;20.10;99.70
11666;DHT22;5889;51.350;6.708;2022-08-21T07:42:47;20.20;99.40
11666;DHT22;5889;51.350;6.708;2022-08-21T07:45:16;20.20;99.40
11666;DHT22;5889;51.350;6.708;2022-08-21T07:47:43;20.30;99.30
11666;DHT22;5889;51.350;6.708;2022-08-21T07:50:10;20.40;99.10
11666;DHT22;5889;51.350;6.708;2022-08-21T07:52:38;20.60;98.40
11666;DHT22;5889;51.350;6.708;2022-08-21T07:55:06;20.60;97.80
11666;DHT22;5889;51.350;6.708;2022-08-21T07:57:33;20.70;97.30
11666;DHT22;5889;51.350;6.708;2022-08-21T08:00:02;20.80;97.00
11666;DHT22;5889;51.350;6.708;2022-08-21T08:02:30;20.90;96.40
11666;DHT22;5889;51.350;6.708;2022-08-21T08:04:59;21.00;96.00
11666;DHT22;5889;51.350;6.708;2022-08-21T08:07:26;21.00;95.90
11666;DHT22;5889;51.350;6.708;2022-08-21T08:09:53;21.00;95.60
11666;DHT22;5889;51.350;6.708;2022-08-21T08:12:20;21.10;95.80
11666;DHT22;5889;51.350;6.708;2022-08-21T08:14:48;21.10;95.90
11666;DHT22;5889;51.350;6.708;2022-08-21T08:17:17;21.30;95.80
11666;DHT22;5889;51.350;6.708;2022-08-21T08:19:47;21.40;95.40
11666;DHT22;5889;51.350;6.708;2022-08-21T08:22:15;21.60;95.20
11666;DHT22;5889;51.350;6.708;2022-08-21T08:24:44;21.70;94.80
11666;DHT22;5889;51.350;6.708;2022-08-21T08:27:11;21.80;94.50
11666;DHT22;5889;51.350;6.708;2022-08-21T08:29:38;21.90;94.50
11666;DHT22;5889;51.350;6.708;2022-08-21T08:32:05;22.10;94.40
11666;DHT22;5889;51.350;6.708;2022-08-21T08:34:35;22.20;94.00
11666;DHT22;5889;51.350;6.708;2022-08-21T08:37:02;22.40;93.70
11666;DHT22;5889;51.350;6.708;2022-08-21T08:39:29;22.40;93.50
11666;DHT22;5889;51.350;6.708;2022-08-21T08:41:59;22.50;93.70
11666;DHT22;5889;51.350;6.708;2022-08-21T08:44:30;22.60;93.20
11666;DHT22;5889;51.350;6.708;2022-08-21T08:46:57;22.60;93.10
11666;DHT22;5889;51.350;6.708;2022-08-21T08:49:30;22.60;93.00
11666;DHT22;5889;51.350;6.708;2022-08-21T08:52:01;22.80;93.00
11666;DHT22;5889;51.350;6.708;2022-08-21T08:54:32;22.90;92.70
11666;DHT22;5889;51.350;6.708;2022-08-21T08:57:00;23.10;92.40
11666;DHT22;5889;51.350;6.708;2022-08-21T08:59:33;23.20;92.40
11666;DHT22;5889;51.350;6.708;2022-08-21T09:02:03;23.30;91.80
11666;DHT22;5889;51.350;6.708;2022-08-21T09:04:31;23.30;91.90
11666;DHT22;5889;51.350;6.708;2022-08-21T09:07:10;23.20;92.10
11666;DHT22;5889;51.350;6.708;2022-08-21T09:09:48;23.30;92.20
11666;DHT22;5889;51.350;6.708;2022-08-21T09:12:35;23.50;92.30
11666;DHT22;5889;51.350;6.708;2022-08-21T09:15:12;23.80;91.50
11666;DHT22;5889;51.350;6.708;2022-08-21T09:17:59;23.90;90.60
11666;DHT22;5889;51.350;6.708;2022-08-21T09:20:36;24.00;90.20
11666;DHT22;5889;51.350;6.708;2022-08-21T09:23:13;24.10;90.10
11666;DHT22;5889;51.350;6.708;2022-08-21T09:25:51;24.00;89.70
11666;DHT22;5889;51.350;6.708;2022-08-21T09:28:20;24.10;90.10
11666;DHT22;5889;51.350;6.708;2022-08-21T09:30:47;24.50;90.30
11666;DHT22;5889;51.350;6.708;2022-08-21T09:33:14;24.70;88.70
11666;DHT22;5889;51.350;6.708;2022-08-21T09:35:52;24.80;87.20
11666;DHT22;5889;51.350;6.708;2022-08-21T09:38:28;24.80;87.40
11666;DHT22;5889;51.350;6.708;2022-08-21T09:40:59;24.90;86.80
11666;DHT22;5889;51.350;6.708;2022-08-21T09:43:27;25.00;86.80
11666;DHT22;5889;51.350;6.708;2022-08-21T09:46:04;25.20;86.30
11666;DHT22;5889;51.350;6.708;2022-08-21T09:48:43;25.30;86.70
11666;DHT22;5889;51.350;6.708;2022-08-21T09:51:14;25.40;85.90
11666;DHT22;5889;51.350;6.708;2022-08-21T09:53:46;25.50;85.00
11666;DHT22;5889;51.350;6.708;2022-08-21T09:56:21;25.40;84.40
11666;DHT22;5889;51.350;6.708;2022-08-21T09:59:24;25.30;85.20
11666;DHT22;5889;51.350;6.708;2022-08-21T10:01:52;25.20;84.30
11666;DHT22;5889;51.350;6.708;2022-08-21T10:04:23;25.20;85.40
11666;DHT22;5889;51.350;6.708;2022-08-21T10:06:50;25.40;85.10
11666;DHT22;5889;51.350;6.708;2022-08-21T10:09:19;25.50;83.80
11666;DHT22;5889;51.350;6.708;2022-08-21T10:11:53;25.60;83.70
11666;DHT22;5889;51.350;6.708;2022-08-21T10:14:35;25.70;83.20
11666;DHT22;5889;51.350;6.708;2022-08-21T10:17:09;25.70;83.40
11666;DHT22;5889;51.350;6.708;2022-08-21T10:19:42;25.90;82.70
11666;DHT22;5889;51.350;6.708;2022-08-21T10:22:24;25.90;82.80
11666;DHT22;5889;51.350;6.708;2022-08-21T10:25:02;26.00;82.70
11666;DHT22;5889;51.350;6.708;2022-08-21T10:27:37;25.90;82.50
11666;DHT22;5889;51.350;6.708;2022-08-21T10:30:08;26.00;82.50
11666;DHT22;5889;51.350;6.708;2022-08-21T10:32:51;26.00;81.60
11666;DHT22;5889;51.350;6.708;2022-08-21T10:35:24;26.10;82.00
11666;DHT22;5889;51.350;6.708;2022-08-21T10:41:06;26.00;81.80
11666;DHT22;5889;51.350;6.708;2022-08-21T10:43:42;26.20;81.70
11666;DHT22;5889;51.350;6.708;2022-08-21T10:46:17;26.30;81.50
11666;DHT22;5889;51.350;6.708;2022-08-21T10:48:51;26.00;81.40
11666;DHT22;5889;51.350;6.708;2022-08-21T10:51:26;25.90;81.40
11666;DHT22;5889;51.350;6.708;2022-08-21T10:53:59;26.00;80.70
11666;DHT22;5889;51.350;6.708;2022-08-21T10:56:33;26.20;80.50
11666;DHT22;5889;51.350;6.708;2022-08-21T10:59:23;26.30;80.40
11666;DHT22;5889;51.350;6.708;2022-08-21T11:01:54;26.50;80.40
11666;DHT22;5889;51.350;6.708;2022-08-21T11:04:28;26.60;79.80
11666;DHT22;5889;51.350;6.708;2022-08-21T11:07:02;26.80;78.60
11666;DHT22;5889;51.350;6.708;2022-08-21T11:09:30;26.70;78.80
11666;DHT22;5889;51.350;6.708;2022-08-21T11:12:03;26.90;79.30
11666;DHT22;5889;51.350;6.708;2022-08-21T11:14:39;27.10;79.10
11666;DHT22;5889;51.350;6.708;2022-08-21T11:17:09;27.10;79.30
11666;DHT22;5889;51.350;6.708;2022-08-21T11:19:40;27.20;79.20
11666;DHT22;5889;51.350;6.708;2022-08-21T11:22:15;27.30;78.20
11666;DHT22;5889;51.350;6.708;2022-08-21T11:25:06;27.40;77.90
11666;DHT22;5889;51.350;6.708;2022-08-21T11:27:39;27.60;77.60
11666;DHT22;5889;51.350;6.708;2022-08-21T11:30:08;27.60;77.30
11666;DHT22;5889;51.350;6.708;2022-08-21T11:33:05;27.60;77.40
11666;DHT22;5889;51.350;6.708;2022-08-21T11:35:39;27.50;77.20
11666;DHT22;5889;51.350;6.708;2022-08-21T11:38:18;27.30;78.10
11666;DHT22;5889;51.350;6.708;2022-08-21T11:41:05;27.40;77.60
11666;DHT22;5889;51.350;6.708;2022-08-21T11:43:39;27.50;77.60
11666;DHT22;5889;51.350;6.708;2022-08-21T11:46:17;27.80;77.40
11666;DHT22;5889;51.350;6.708;2022-08-21T11:48:55;27.90;75.90
11666;DHT22;5889;51.350;6.708;2022-08-21T11:51:29;28.10;74.90
11666;DHT22;5889;51.350;6.708;2022-08-21T11:54:03;27.80;74.80
11666;DHT22;5889;51.350;6.708;2022-08-21T11:56:35;27.70;75.20
11666;DHT22;5889;51.350;6.708;2022-08-21T11:59:09;27.70;75.80
11666;DHT22;5889;51.350;6.708;2022-08-21T12:01:41;27.90;76.40
11666;DHT22;5889;51.350;6.708;2022-08-21T12:04:17;28.00;76.00
11666;DHT22;5889;51.350;6.708;2022-08-21T12:06:45;27.80;74.80
11666;DHT22;5889;51.350;6.708;2022-08-21T12:09:30;27.60;76.20
11666;DHT22;5889;51.350;6.708;2022-08-21T12:12:02;27.80;76.10
11666;DHT22;5889;51.350;6.708;2022-08-21T12:14:38;27.90;75.10
11666;DHT22;5889;51.350;6.708;2022-08-21T12:17:07;27.80;75.20
11666;DHT22;5889;51.350;6.708;2022-08-21T12:19:35;27.60;75.30
11666;DHT22;5889;51.350;6.708;2022-08-21T12:22:10;27.40;76.30
11666;DHT22;5889;51.350;6.708;2022-08-21T12:24:40;27.50;75.60
11666;DHT22;5889;51.350;6.708;2022-08-21T12:27:20;27.50;75.40
11666;DHT22;5889;51.350;6.708;2022-08-21T12:29:55;27.50;75.70
11666;DHT22;5889;51.350;6.708;2022-08-21T12:32:26;27.30;74.50
11666;DHT22;5889;51.350;6.708;2022-08-21T12:34:58;27.10;75.00
11666;DHT22;5889;51.350;6.708;2022-08-21T12:37:37;26.60;74.60
11666;DHT22;5889;51.350;6.708;2022-08-21T12:40:11;26.60;74.30
11666;DHT22;5889;51.350;6.708;2022-08-21T12:42:43;26.80;74.80
11666;DHT22;5889;51.350;6.708;2022-08-21T12:45:18;27.00;74.00
11666;DHT22;5889;51.350;6.708;2022-08-21T12:47:49;27.20;74.30
11666;DHT22;5889;51.350;6.708;2022-08-21T12:50:21;27.30;73.40
11666;DHT22;5889;51.350;6.708;2022-08-21T12:52:55;27.10;74.20
11666;DHT22;5889;51.350;6.708;2022-08-21T12:55:31;26.80;74.40
11666;DHT22;5889;51.350;6.708;2022-08-21T12:57:58;26.60;74.80
11666;DHT22;5889;51.350;6.708;2022-08-21T13:00:29;26.40;76.10
11666;DHT22;5889;51.350;6.708;2022-08-21T13:02:56;26.40;75.80
11666;DHT22;5889;51.350;6.708;2022-08-21T13:05:29;26.70;76.10
11666;DHT22;5889;51.350;6.708;2022-08-21T13:07:57;27.00;75.10
11666;DHT22;5889;51.350;6.708;2022-08-21T13:10:27;27.10;75.00
11666;DHT22;5889;51.350;6.708;2022-08-21T13:13:04;27.10;74.50
11666;DHT22;5889;51.350;6.708;2022-08-21T13:15:35;27.20;72.50
11666;DHT22;5889;51.350;6.708;2022-08-21T13:18:05;27.30;72.80
11666;DHT22;5889;51.350;6.708;2022-08-21T13:20:35;27.50;73.00
11666;DHT22;5889;51.350;6.708;2022-08-21T13:23:07;27.70;72.40
11666;DHT22;5889;51.350;6.708;2022-08-21T13:25:42;27.80;71.60
11666;DHT22;5889;51.350;6.708;2022-08-21T13:28:10;27.40;72.70
11666;DHT22;5889;51.350;6.708;2022-08-21T13:30:43;27.20;71.50
11666;DHT22;5889;51.350;6.708;2022-08-21T13:33:13;26.90;72.20
11666;DHT22;5889;51.350;6.708;2022-08-21T13:35:50;26.70;73.60
11666;DHT22;5889;51.350;6.708;2022-08-21T13:38:20;26.70;74.00
11666;DHT22;5889;51.350;6.708;2022-08-21T13:40:52;26.70;74.20
11666;DHT22;5889;51.350;6.708;2022-08-21T13:43:25;26.80;74.60
11666;DHT22;5889;51.350;6.708;2022-08-21T13:45:56;27.00;74.40
11666;DHT22;5889;51.350;6.708;2022-08-21T13:48:28;27.20;74.40
11666;DHT22;5889;51.350;6.708;2022-08-21T13:50:57;27.40;73.70
11666;DHT22;5889;51.350;6.708;2022-08-21T13:53:29;27.50;73.60
11666;DHT22;5889;51.350;6.708;2022-08-21T13:55:57;27.40;74.20
11666;DHT22;5889;51.350;6.708;2022-08-21T13:58:26;27.30;73.20
11666;DHT22;5889;51.350;6.708;2022-08-21T14:00:55;27.30;73.90
11666;DHT22;5889;51.350;6.708;2022-08-21T14:03:29;27.60;73.10
11666;DHT22;5889;51.350;6.708;2022-08-21T14:05:58;27.80;72.30
11666;DHT22;5889;51.350;6.708;2022-08-21T14:08:29;27.80;73.00
11666;DHT22;5889;51.350;6.708;2022-08-21T14:10:58;27.90;71.60
11666;DHT22;5889;51.350;6.708;2022-08-21T14:13:34;28.00;71.40
11666;DHT22;5889;51.350;6.708;2022-08-21T14:16:17;28.10;70.00
11666;DHT22;5889;51.350;6.708;2022-08-21T14:18:50;27.90;70.30
11666;DHT22;5889;51.350;6.708;2022-08-21T14:21:29;27.70;71.10
11666;DHT22;5889;51.350;6.708;2022-08-21T14:24:08;28.00;70.50
11666;DHT22;5889;51.350;6.708;2022-08-21T14:26:42;27.90;70.30
11666;DHT22;5889;51.350;6.708;2022-08-21T14:29:11;27.70;70.60
11666;DHT22;5889;51.350;6.708;2022-08-21T14:31:40;27.60;70.80
11666;DHT22;5889;51.350;6.708;2022-08-21T14:34:10;27.40;71.10
11666;DHT22;5889;51.350;6.708;2022-08-21T14:36:38;27.20;71.20
11666;DHT22;5889;51.350;6.708;2022-08-21T14:39:05;26.90;72.30
11666;DHT22;5889;51.350;6.708;2022-08-21T14:41:32;26.70;72.40
11666;DHT22;5889;51.350;6.708;2022-08-21T14:43:59;26.80;71.50
11666;DHT22;5889;51.350;6.708;2022-08-21T14:46:28;27.20;70.80
11666;DHT22;5889;51.350;6.708;2022-08-21T14:48:56;27.30;71.10
11666;DHT22;5889;51.350;6.708;2022-08-21T14:51:23;27.40;71.20
11666;DHT22;5889;51.350;6.708;2022-08-21T14:53:50;27.70;70.60
11666;DHT22;5889;51.350;6.708;2022-08-21T14:56:18;27.80;69.00
11666;DHT22;5889;51.350;6.708;2022-08-21T14:58:47;27.60;69.90
11666;DHT22;5889;51.350;6.708;2022-08-21T15:01:16;27.50;70.30
11666;DHT22;5889;51.350;6.708;2022-08-21T15:03:44;27.40;70.10
11666;DHT22;5889;51.350;6.708;2022-08-21T15:06:13;27.50;70.10
11666;DHT22;5889;51.350;6.708;2022-08-21T15:08:39;27.50;69.90
11666;DHT22;5889;51.350;6.708;2022-08-21T15:11:07;27.40;70.50
11666;DHT22;5889;51.350;6.708;2022-08-21T15:13:36;27.50;71.10
11666;DHT22;5889;51.350;6.708;2022-08-21T15:16:04;27.80;70.30
11666;DHT22;5889;51.350;6.708;2022-08-21T15:18:31;28.00;70.30
11666;DHT22;5889;51.350;6.708;2022-08-21T15:20:58;28.10;69.70
11666;DHT22;5889;51.350;6.708;2022-08-21T15:23:26;28.00;69.60
11666;DHT22;5889;51.350;6.708;2022-08-21T15:25:53;28.30;69.00
11666;DHT22;5889;51.350;6.708;2022-08-21T15:28:23;28.20;68.20
11666;DHT22;5889;51.350;6.708;2022-08-21T15:30:51;27.40;69.40
11666;DHT22;5889;51.350;6.708;2022-08-21T15:33:18;27.10;70.50
11666;DHT22;5889;51.350;6.708;2022-08-21T15:35:45;27.20;70.50
11666;DHT22;5889;51.350;6.708;2022-08-21T15:38:12;27.30;70.40
11666;DHT22;5889;51.350;6.708;2022-08-21T15:40:41;27.30;71.00
11666;DHT22;5889;51.350;6.708;2022-08-21T15:43:16;27.50;70.50
11666;DHT22;5889;51.350;6.708;2022-08-21T15:45:45;27.30;70.50
11666;DHT22;5889;51.350;6.708;2022-08-21T15:48:12;27.20;70.50
11666;DHT22;5889;51.350;6.708;2022-08-21T15:50:39;27.00;70.40
11666;DHT22;5889;51.350;6.708;2022-08-21T15:53:05;26.80;71.10
11666;DHT22;5889;51.350;6.708;2022-08-21T15:55:33;26.90;70.10
11666;DHT22;5889;51.350;6.708;2022-08-21T15:58:03;26.70;71.40
11666;DHT22;5889;51.350;6.708;2022-08-21T16:00:32;26.60;70.80
11666;DHT22;5889;51.350;6.708;2022-08-21T16:03:03;26.50;72.20
11666;DHT22;5889;51.350;6.708;2022-08-21T16:05:31;26.50;71.10